Time,TemperatureF,DewpointF,PressureIn,WindDirection,WindDirectionDegrees,WindSpeedMPH,WindSpeedGustMPH,Humidity,HourlyPrecipIn,Conditions,Clouds,dailyrainin,SoftwareType,DateUTC
2013-03-20 00:00:00,68.6,66.2,29.92,East,81,0.0,0.0,92,0.00,,OVC,0.00,WeatherDisplay:10.37,2013-03-20 04:00:00,
2013-03-20 00:05:00,68.3,65.9,29.92,East,81,0.0,0.0,92,0.00,,OVC,0.00,WeatherDisplay:10.37,2013-03-20 04:05:00,
2013-03-20 00:10:00,67.8,65.4,29.92,East,81,0.0,0.0,92,0.00,,OVC,0.00,WeatherDisplay:10.37,2013-03-20 04:10:00,
2013-03-20 00:15:00,67.8,65.4,29.92,East,81,0.0,0.0,92,0.00,,OVC,0.00,WeatherDisplay:10.37,2013-03-20 04:15:00,
2013-03-20 00:20:00,67.4,65.0,29.92,East,81,0.0,0.0,92,0.00,,OVC,0.00,WeatherDisplay:10.37,2013-03-20 04:20:00,
2013-03-20 00:25:00,67.3,64.9,29.92,East,81,0.0,0.0,92,0.00,,OVC,0.00,WeatherDisplay:10.37,2013-03-20 04:25:00,
2013-03-20 00:30:00,67.1,64.7,29.92,East,81,0.0,0.0,92,0.00,,OVC,0.00,WeatherDisplay:10.37,2013-03-20 04:30:00,
2013-03-20 00:35:00,66.9,64.5,29.92,East,81,0.0,0.0,92,0.00,,OVC,0.00,WeatherDisplay:10.37,2013-03-20 04:35:00,
2013-03-20 00:40:00,66.8,64.4,29.92,East,81,0.0,0.0,92,0.00,,OVC,0.00,WeatherDisplay:10.37,2013-03-20 04:40:00,
2013-03-20 00:45:00,66.6,64.2,29.92,East,81,0.0,0.0,92,0.00,,OVC,0.00,WeatherDisplay:10.37,2013-03-20 04:45:00,
2013-03-20 00:50:00,66.6,64.5,29.92,East,81,0.0,0.0,93,0.00,,OVC,0.00,WeatherDisplay:10.37,2013-03-20 04:50:00,
2013-03-20 00:55:00,66.8,64.7,29.92,East,81,0.0,0.0,93,0.00,,OVC,0.00,WeatherDisplay:10.37,2013-03-20 04:55:00,
2013-03-20 01:00:00,66.6,64.2,29.92,East,81,0.0,0.0,92,0.00,,OVC,0.00,WeatherDisplay:10.37,2013-03-20 05:00:00,
2013-03-20 01:05:00,66.4,64.3,29.92,East,81,0.0,0.0,93,0.00,,OVC,0.00,WeatherDisplay:10.37,2013-03-20 05:05:00,
2013-03-20 01:10:00,66.6,64.5,29.92,East,81,0.0,0.0,93,0.00,,OVC,0.00,WeatherDisplay:10.37,2013-03-20 05:10:00,
2013-03-20 01:15:00,66.6,64.5,29.92,East,81,0.0,0.0,93,0.00,,OVC,0.00,WeatherDisplay:10.37,2013-03-20 05:15:00,
2013-03-20 01:20:00,66.6,64.5,29.92,East,81,0.0,0.0,93,0.00,,OVC,0.00,WeatherDisplay:10.37,2013-03-20 05:20:00,
2013-03-20 01:25:00,66.6,64.5,29.92,East,81,0.0,0.0,93,0.00,,OVC,0.00,WeatherDisplay:10.37,2013-03-20 05:25:00,
2013-03-20 01:30:00,66.3,64.2,29.92,East,81,0.0,0.0,93,0.00,,OVC,0.00,WeatherDisplay:10.37,2013-03-20 05:30:00,
2013-03-20 01:35:00,66.1,64.0,29.92,East,81,0.0,0.0,93,0.00,,OVC,0.00,WeatherDisplay:10.37,2013-03-20 05:35:00,
2013-03-20 01:40:00,66.0,63.9,29.92,East,81,0.0,0.0,93,0.00,,OVC,0.00,WeatherDisplay:10.37,2013-03-20 05:40:00,
2013-03-20 01:45:00,66.0,63.9,29.92,East,81,0.0,0.0,93,0.00,,OVC,0.00,WeatherDisplay:10.37,2013-03-20 05:45:00,
2013-03-20 01:50:00,66.0,63.9,29.92,East,81,0.0,0.0,93,0.00,,OVC,0.00,WeatherDisplay:10.37,2013-03-20 05:50:00,
2013-03-20 01:55:00,66.1,64.0,29.92,East,81,0.0,0.0,93,0.00,,OVC,0.00,WeatherDisplay:10.37,2013-03-20 05:55:00,
2013-03-20 02:00:00,66.0,63.9,29.92,East,81,0.0,0.0,93,0.00,,OVC,0.00,WeatherDisplay:10.37,2013-03-20 06:00:00,
2013-03-20 02:05:00,65.8,63.7,29.92,East,81,0.0,0.0,93,0.00,,OVC,0.00,WeatherDisplay:10.37,2013-03-20 06:05:00,
2013-03-20 02:10:00,65.6,63.5,29.92,East,80,0.0,0.0,93,0.00,,OVC,0.00,WeatherDisplay:10.37,2013-03-20 06:10:00,
2013-03-20 02:15:00,65.5,63.7,29.92,East,80,0.0,0.0,94,0.00,,OVC,0.00,WeatherDisplay:10.37,2013-03-20 06:15:00,
2013-03-20 02:20:00,65.6,63.8,29.92,East,80,0.0,0.0,94,0.00,,OVC,0.00,WeatherDisplay:10.37,2013-03-20 06:20:00,
2013-03-20 02:25:00,65.6,63.8,29.92,East,80,0.0,0.0,94,0.00,,OVC,0.00,WeatherDisplay:10.37,2013-03-20 06:25:00,
2013-03-20 02:30:00,65.5,63.7,29.91,East,80,0.0,0.0,94,0.00,,OVC,0.00,WeatherDisplay:10.37,2013-03-20 06:30:00,
2013-03-20 02:35:00,65.5,63.7,29.91,East,80,0.0,0.0,94,0.00,,OVC,0.00,WeatherDisplay:10.37,2013-03-20 06:35:00,
2013-03-20 02:40:00,65.5,63.7,29.91,East,80,0.0,0.0,94,0.00,,OVC,0.00,WeatherDisplay:10.37,2013-03-20 06:40:00,
2013-03-20 02:45:00,65.3,63.5,29.91,East,80,0.0,0.0,94,0.00,,OVC,0.00,WeatherDisplay:10.37,2013-03-20 06:45:00,
2013-03-20 02:50:00,65.2,63.4,29.91,East,80,0.0,0.0,94,0.00,,OVC,0.00,WeatherDisplay:10.37,2013-03-20 06:50:00,
2013-03-20 02:55:00,65.0,63.2,29.91,East,80,0.0,0.0,94,0.00,,OVC,0.00,WeatherDisplay:10.37,2013-03-20 06:55:00,
2013-03-20 03:00:00,64.8,63.0,29.90,East,80,0.0,0.0,94,0.00,,OVC,0.00,WeatherDisplay:10.37,2013-03-20 07:00:00,
2013-03-20 03:05:00,64.8,63.0,29.90,East,80,0.0,0.0,94,0.00,,OVC,0.00,WeatherDisplay:10.37,2013-03-20 07:05:00,
2013-03-20 03:10:00,64.7,62.9,29.90,East,80,0.0,0.0,94,0.00,,OVC,0.00,WeatherDisplay:10.37,2013-03-20 07:10:00,
2013-03-20 03:15:00,64.7,62.9,29.90,East,80,0.0,0.0,94,0.00,,OVC,0.00,WeatherDisplay:10.37,2013-03-20 07:15:00,
2013-03-20 03:21:00,64.5,62.7,29.90,East,80,0.0,0.0,94,0.00,,OVC,0.00,WeatherDisplay:10.37,2013-03-20 07:21:00,
2013-03-20 03:26:00,64.7,62.9,29.90,East,80,0.0,0.0,94,0.00,,OVC,0.00,WeatherDisplay:10.37,2013-03-20 07:26:00,
2013-03-20 03:31:00,64.7,62.9,29.89,East,80,0.0,0.0,94,0.00,,OVC,0.00,WeatherDisplay:10.37,2013-03-20 07:31:00,
2013-03-20 03:36:00,64.7,62.9,29.89,East,80,0.0,0.0,94,0.00,,OVC,0.00,WeatherDisplay:10.37,2013-03-20 07:36:00,
2013-03-20 03:41:00,64.7,62.9,29.89,East,80,0.0,0.0,94,0.00,,OVC,0.00,WeatherDisplay:10.37,2013-03-20 07:41:00,
2013-03-20 03:46:00,64.7,62.9,29.89,East,80,0.0,0.0,94,0.00,,OVC,0.00,WeatherDisplay:10.37,2013-03-20 07:46:00,
2013-03-20 03:51:00,64.8,63.0,29.89,East,80,0.0,0.0,94,0.00,,OVC,0.00,WeatherDisplay:10.37,2013-03-20 07:51:00,
2013-03-20 03:56:00,65.0,63.5,29.89,East,80,0.0,0.0,95,0.00,,OVC,0.00,WeatherDisplay:10.37,2013-03-20 07:56:00,
2013-03-20 04:01:00,65.0,63.5,29.89,East,80,0.0,0.0,95,0.00,,OVC,0.00,WeatherDisplay:10.37,2013-03-20 08:01:00,
2013-03-20 04:06:00,65.0,63.5,29.89,East,80,0.0,0.0,95,0.00,,OVC,0.00,WeatherDisplay:10.37,2013-03-20 08:06:00,
2013-03-20 04:11:00,65.0,63.5,29.89,East,80,0.0,0.0,95,0.00,,OVC,0.00,WeatherDisplay:10.37,2013-03-20 08:11:00,
2013-03-20 04:16:00,64.8,63.3,29.88,East,80,0.0,0.0,95,0.00,,OVC,0.00,WeatherDisplay:10.37,2013-03-20 08:16:00,
2013-03-20 04:21:00,64.7,63.2,29.88,East,80,0.0,0.0,95,0.00,,OVC,0.00,WeatherDisplay:10.37,2013-03-20 08:21:00,
2013-03-20 04:27:00,64.7,63.2,29.88,East,80,0.0,0.0,95,0.00,,OVC,0.00,WeatherDisplay:10.37,2013-03-20 08:27:00,
2013-03-20 04:32:00,64.5,63.0,29.88,East,80,0.0,0.0,95,0.00,,OVC,0.00,WeatherDisplay:10.37,2013-03-20 08:32:00,
2013-03-20 04:37:00,64.3,62.8,29.88,East,80,0.0,0.0,95,0.00,,OVC,0.00,WeatherDisplay:10.37,2013-03-20 08:37:00,
2013-03-20 04:42:00,64.2,62.7,29.88,East,80,0.0,0.0,95,0.00,,OVC,0.00,WeatherDisplay:10.37,2013-03-20 08:42:00,
2013-03-20 04:47:00,64.0,62.5,29.87,East,80,0.0,0.0,95,0.00,,OVC,0.00,WeatherDisplay:10.37,2013-03-20 08:47:00,
2013-03-20 04:52:00,64.0,62.5,29.87,East,80,0.0,0.0,95,0.00,,OVC,0.00,WeatherDisplay:10.37,2013-03-20 08:52:00,
2013-03-20 04:57:00,63.9,62.4,29.87,East,80,0.0,0.0,95,0.00,,OVC,0.00,WeatherDisplay:10.37,2013-03-20 08:57:00,
2013-03-20 05:02:00,64.0,62.5,29.88,East,80,0.0,0.0,95,0.00,,OVC,0.00,WeatherDisplay:10.37,2013-03-20 09:02:00,
2013-03-20 05:07:00,63.9,62.4,29.88,East,80,0.0,0.0,95,0.00,,OVC,0.00,WeatherDisplay:10.37,2013-03-20 09:07:00,
2013-03-20 05:12:00,63.9,62.4,29.88,East,80,0.0,0.0,95,0.00,,OVC,0.00,WeatherDisplay:10.37,2013-03-20 09:12:00,
2013-03-20 05:17:00,63.7,62.2,29.88,East,80,0.0,0.0,95,0.00,,OVC,0.00,WeatherDisplay:10.37,2013-03-20 09:17:00,
2013-03-20 05:22:00,63.7,62.2,29.88,East,80,0.0,0.0,95,0.00,,OVC,0.00,WeatherDisplay:10.37,2013-03-20 09:22:00,
2013-03-20 05:27:00,63.9,62.4,29.88,East,80,0.0,0.0,95,0.00,,OVC,0.00,WeatherDisplay:10.37,2013-03-20 09:27:00,
2013-03-20 05:32:00,63.9,62.4,29.88,East,80,0.0,0.0,95,0.00,,OVC,0.00,WeatherDisplay:10.37,2013-03-20 09:32:00,
2013-03-20 05:37:00,63.7,62.2,29.88,East,80,0.0,0.0,95,0.00,,OVC,0.00,WeatherDisplay:10.37,2013-03-20 09:37:00,
2013-03-20 05:42:00,63.5,62.0,29.88,East,80,0.0,0.0,95,0.00,,OVC,0.00,WeatherDisplay:10.37,2013-03-20 09:42:00,
2013-03-20 05:47:00,63.5,62.0,29.89,East,80,0.0,0.0,95,0.00,,OVC,0.00,WeatherDisplay:10.37,2013-03-20 09:47:00,
2013-03-20 05:52:00,63.5,62.0,29.89,East,80,0.0,0.0,95,0.00,,OVC,0.00,WeatherDisplay:10.37,2013-03-20 09:52:00,
2013-03-20 05:57:00,63.5,62.3,29.89,East,80,0.0,0.0,96,0.00,,OVC,0.00,WeatherDisplay:10.37,2013-03-20 09:57:00,
2013-03-20 06:02:00,63.9,62.7,29.89,East,80,0.0,0.0,96,0.00,,OVC,0.00,WeatherDisplay:10.37,2013-03-20 10:02:00,
2013-03-20 06:07:00,64.0,62.8,29.89,East,80,0.0,0.0,96,0.00,,OVC,0.00,WeatherDisplay:10.37,2013-03-20 10:07:00,
2013-03-20 06:12:00,64.2,63.0,29.89,East,80,0.0,0.0,96,0.00,,OVC,0.00,WeatherDisplay:10.37,2013-03-20 10:12:00,
2013-03-20 06:18:00,64.3,63.1,29.89,East,80,0.0,0.0,96,0.00,,OVC,0.00,WeatherDisplay:10.37,2013-03-20 10:18:00,
2013-03-20 06:23:00,64.3,63.1,29.89,East,80,0.0,0.0,96,0.00,,OVC,0.00,WeatherDisplay:10.37,2013-03-20 10:23:00,
2013-03-20 06:28:00,64.5,63.3,29.89,East,80,0.0,0.0,96,0.00,,OVC,0.00,WeatherDisplay:10.37,2013-03-20 10:28:00,
2013-03-20 06:33:00,64.5,63.3,29.90,East,80,0.0,0.0,96,0.00,,OVC,0.00,WeatherDisplay:10.37,2013-03-20 10:33:00,
2013-03-20 06:38:00,64.7,63.5,29.90,East,80,0.0,0.0,96,0.00,,OVC,0.00,WeatherDisplay:10.37,2013-03-20 10:38:00,
2013-03-20 06:43:00,64.8,63.6,29.90,East,80,0.0,0.0,96,0.00,,OVC,0.00,WeatherDisplay:10.37,2013-03-20 10:43:00,
2013-03-20 06:48:00,64.7,63.5,29.90,East,80,0.0,0.0,96,0.00,,OVC,0.00,WeatherDisplay:10.37,2013-03-20 10:48:00,
2013-03-20 06:53:00,64.8,63.6,29.90,East,80,0.0,0.0,96,0.00,,OVC,0.00,WeatherDisplay:10.37,2013-03-20 10:53:00,
2013-03-20 06:58:00,64.8,63.6,29.90,East,80,0.0,0.0,96,0.00,,OVC,0.00,WeatherDisplay:10.37,2013-03-20 10:58:00,
2013-03-20 07:03:00,64.7,63.5,29.90,East,80,0.0,0.0,96,0.00,,OVC,0.00,WeatherDisplay:10.37,2013-03-20 11:03:00,
2013-03-20 07:08:00,64.7,63.5,29.90,East,80,0.0,0.0,96,0.00,,OVC,0.00,WeatherDisplay:10.37,2013-03-20 11:08:00,
2013-03-20 07:13:00,64.5,63.3,29.90,East,80,0.0,0.0,96,0.00,,OVC,0.00,WeatherDisplay:10.37,2013-03-20 11:13:00,
2013-03-20 07:18:00,64.2,63.0,29.91,East,80,0.0,0.0,96,0.00,,OVC,0.00,WeatherDisplay:10.37,2013-03-20 11:18:00,
2013-03-20 07:23:00,64.2,63.0,29.91,East,80,0.0,0.0,96,0.00,,OVC,0.00,WeatherDisplay:10.37,2013-03-20 11:23:00,
2013-03-20 07:28:00,64.2,63.0,29.91,East,80,0.0,0.0,96,0.00,,OVC,0.00,WeatherDisplay:10.37,2013-03-20 11:28:00,
2013-03-20 07:33:00,64.2,63.0,29.91,East,80,0.0,0.0,96,0.00,,OVC,0.00,WeatherDisplay:10.37,2013-03-20 11:33:00,
2013-03-20 07:38:00,64.2,63.0,29.91,East,80,0.0,0.0,96,0.00,,OVC,0.00,WeatherDisplay:10.37,2013-03-20 11:38:00,
2013-03-20 07:43:00,64.0,62.8,29.91,East,80,0.0,0.0,96,0.00,,OVC,0.00,WeatherDisplay:10.37,2013-03-20 11:43:00,
2013-03-20 07:48:00,64.0,62.8,29.91,East,80,0.0,0.0,96,0.00,,OVC,0.00,WeatherDisplay:10.37,2013-03-20 11:48:00,
2013-03-20 07:53:00,64.3,63.1,29.91,East,80,0.0,0.0,96,0.00,,OVC,0.00,WeatherDisplay:10.37,2013-03-20 11:53:00,
2013-03-20 07:58:00,64.7,63.5,29.91,East,80,0.0,0.0,96,0.00,,OVC,0.00,WeatherDisplay:10.37,2013-03-20 11:58:00,
2013-03-20 08:03:00,64.7,63.5,29.91,East,80,0.0,0.0,96,0.00,,OVC,0.00,WeatherDisplay:10.37,2013-03-20 12:03:00,
2013-03-20 08:08:00,64.8,63.6,29.91,East,80,0.0,0.0,96,0.00,,OVC,0.00,WeatherDisplay:10.37,2013-03-20 12:08:00,
2013-03-20 08:14:00,65.0,63.8,29.91,East,80,0.0,0.0,96,0.00,,OVC,0.00,WeatherDisplay:10.37,2013-03-20 12:14:00,
2013-03-20 08:19:00,65.0,63.8,29.91,East,80,0.0,0.0,96,0.00,,OVC,0.00,WeatherDisplay:10.37,2013-03-20 12:19:00,
2013-03-20 08:24:00,65.3,64.1,29.91,East,80,0.0,0.0,96,0.00,,OVC,0.00,WeatherDisplay:10.37,2013-03-20 12:24:00,
2013-03-20 08:29:00,65.5,64.3,29.91,East,80,0.0,0.0,96,0.00,,OVC,0.00,WeatherDisplay:10.37,2013-03-20 12:29:00,
2013-03-20 08:34:00,65.8,64.6,29.92,East,80,0.0,0.0,96,0.00,,OVC,0.00,WeatherDisplay:10.37,2013-03-20 12:34:00,
2013-03-20 08:39:00,66.1,64.9,29.92,East,80,0.0,0.0,96,0.00,,OVC,0.00,WeatherDisplay:10.37,2013-03-20 12:39:00,
2013-03-20 08:44:00,66.4,65.2,29.92,East,80,0.0,0.0,96,0.00,,OVC,0.00,WeatherDisplay:10.37,2013-03-20 12:44:00,
2013-03-20 08:49:00,66.8,65.6,29.93,East,80,0.0,0.0,96,0.00,,OVC,0.00,WeatherDisplay:10.37,2013-03-20 12:49:00,
2013-03-20 08:54:00,67.1,65.9,29.93,East,80,0.0,0.0,96,0.00,,OVC,0.00,WeatherDisplay:10.37,2013-03-20 12:54:00,
2013-03-20 08:59:00,67.4,66.2,29.93,East,80,0.0,0.0,96,0.00,,OVC,0.00,WeatherDisplay:10.37,2013-03-20 12:59:00,
2013-03-20 09:04:00,67.8,66.6,29.93,East,80,0.0,0.0,96,0.00,,OVC,0.00,WeatherDisplay:10.37,2013-03-20 13:04:00,
2013-03-20 09:09:00,68.3,67.1,29.93,East,80,0.0,0.0,96,0.00,,OVC,0.00,WeatherDisplay:10.37,2013-03-20 13:09:00,
2013-03-20 09:14:00,68.9,67.7,29.93,East,80,0.0,0.0,96,0.00,,OVC,0.00,WeatherDisplay:10.37,2013-03-20 13:14:00,
2013-03-20 09:19:00,69.3,68.1,29.93,East,80,0.0,0.0,96,0.00,,OVC,0.00,WeatherDisplay:10.37,2013-03-20 13:19:00,
2013-03-20 09:24:00,69.4,68.2,29.93,East,80,0.0,0.0,96,0.00,,OVC,0.00,WeatherDisplay:10.37,2013-03-20 13:24:00,
2013-03-20 09:29:00,69.6,68.4,29.94,East,80,0.0,0.0,96,0.00,,OVC,0.00,WeatherDisplay:10.37,2013-03-20 13:29:00,
2013-03-20 09:34:00,69.6,68.4,29.94,East,80,0.0,0.0,96,0.00,,OVC,0.00,WeatherDisplay:10.37,2013-03-20 13:34:00,
2013-03-20 09:39:00,69.6,68.4,29.94,East,80,0.0,0.0,96,0.00,,OVC,0.00,WeatherDisplay:10.37,2013-03-20 13:39:00,
2013-03-20 09:44:00,69.8,68.6,29.95,East,80,0.0,0.0,96,0.00,,OVC,0.00,WeatherDisplay:10.37,2013-03-20 13:44:00,
2013-03-20 09:49:00,69.8,68.3,29.95,East,81,0.0,0.0,95,0.00,,OVC,0.00,WeatherDisplay:10.37,2013-03-20 13:49:00,
2013-03-20 09:54:00,70.1,68.6,29.95,East,80,0.0,0.0,95,0.00,,OVC,0.00,WeatherDisplay:10.37,2013-03-20 13:54:00,
2013-03-20 09:59:00,70.4,68.6,29.95,East,81,0.0,0.0,94,0.00,,OVC,0.00,WeatherDisplay:10.37,2013-03-20 13:59:00,
2013-03-20 10:04:00,70.9,68.8,29.95,East,81,0.0,0.0,93,0.00,,OVC,0.00,WeatherDisplay:10.37,2013-03-20 14:04:00,
2013-03-20 10:09:00,71.3,68.5,29.95,East,81,0.0,0.0,91,0.00,,OVC,0.00,WeatherDisplay:10.37,2013-03-20 14:09:00,
2013-03-20 10:14:00,71.8,68.4,29.95,East,81,0.0,0.0,89,0.00,,OVC,0.00,WeatherDisplay:10.37,2013-03-20 14:14:00,
2013-03-20 10:19:00,72.5,67.4,29.95,East,81,0.0,0.0,84,0.00,,OVC,0.00,WeatherDisplay:10.37,2013-03-20 14:19:00,
2013-03-20 10:24:00,73.3,67.1,29.95,East,81,0.0,0.0,81,0.00,,OVC,0.00,WeatherDisplay:10.37,2013-03-20 14:24:00,
2013-03-20 10:29:00,73.9,66.6,29.94,East,81,0.0,0.0,78,0.00,,OVC,0.00,WeatherDisplay:10.37,2013-03-20 14:29:00,
2013-03-20 10:34:00,74.0,65.6,29.94,East,81,0.0,0.0,75,0.00,,OVC,0.00,WeatherDisplay:10.37,2013-03-20 14:34:00,
2013-03-20 10:39:00,74.7,65.9,29.94,East,81,0.0,0.0,74,0.00,,OVC,0.00,WeatherDisplay:10.37,2013-03-20 14:39:00,
2013-03-20 10:44:00,75.3,65.2,29.93,East,81,0.0,0.0,71,0.00,,OVC,0.00,WeatherDisplay:10.37,2013-03-20 14:44:00,
2013-03-20 10:49:00,75.3,64.8,29.93,East,83,0.0,0.0,70,0.00,,OVC,0.00,WeatherDisplay:10.37,2013-03-20 14:49:00,
2013-03-20 10:54:00,75.4,64.5,29.93,East,83,0.0,0.0,69,0.00,,OVC,0.00,WeatherDisplay:10.37,2013-03-20 14:54:00,
2013-03-20 10:59:00,75.6,64.7,29.93,East,83,0.0,0.0,69,0.00,,OVC,0.00,WeatherDisplay:10.37,2013-03-20 14:59:00,
2013-03-20 11:04:00,76.1,65.6,29.93,East,83,0.0,0.0,70,0.00,,OVC,0.00,WeatherDisplay:10.37,2013-03-20 15:04:00,
2013-03-20 11:09:00,76.1,65.2,29.93,SE,128,0.0,0.0,69,0.00,,OVC,0.00,WeatherDisplay:10.37,2013-03-20 15:09:00,
2013-03-20 11:14:00,76.1,65.2,29.93,SE,128,0.0,0.0,69,0.00,,OVC,0.00,WeatherDisplay:10.37,2013-03-20 15:14:00,
2013-03-20 11:19:00,76.5,65.1,29.93,SE,128,0.0,0.0,68,0.00,,OVC,0.00,WeatherDisplay:10.37,2013-03-20 15:19:00,
2013-03-20 11:24:00,77.0,64.8,29.93,SE,131,0.0,0.0,66,0.00,,OVC,0.00,WeatherDisplay:10.37,2013-03-20 15:24:00,
2013-03-20 11:29:00,77.7,65.4,29.92,South,173,0.0,0.0,66,0.00,,OVC,0.00,WeatherDisplay:10.37,2013-03-20 15:29:00,
2013-03-20 11:34:00,78.5,65.3,29.92,SE,132,0.0,0.0,64,0.00,,OVC,0.00,WeatherDisplay:10.37,2013-03-20 15:34:00,
2013-03-20 11:39:00,78.8,65.1,29.92,ESE,123,0.0,0.0,63,0.00,,OVC,0.00,WeatherDisplay:10.37,2013-03-20 15:39:00,
2013-03-20 11:44:00,78.8,65.1,29.92,SE,145,0.0,0.0,63,0.00,,OVC,0.00,WeatherDisplay:10.37,2013-03-20 15:44:00,
2013-03-20 11:49:00,78.8,64.7,29.92,SE,146,0.0,0.0,62,0.00,,OVC,0.00,WeatherDisplay:10.37,2013-03-20 15:49:00,
2013-03-20 11:54:00,79.2,64.6,29.92,SE,133,0.0,0.0,61,0.00,,OVC,0.00,WeatherDisplay:10.37,2013-03-20 15:54:00,
2013-03-20 11:59:00,79.4,65.2,29.92,SE,142,13.0,13.0,62,0.00,,OVC,0.00,WeatherDisplay:10.37,2013-03-20 15:59:00,
2013-03-20 12:05:00,79.9,65.2,29.92,SSE,159,14.0,14.0,61,0.00,,OVC,0.00,WeatherDisplay:10.37,2013-03-20 16:05:00,
2013-03-20 12:10:00,79.4,62.3,29.92,SSW,207,12.7,12.7,56,0.00,,OVC,0.00,WeatherDisplay:10.37,2013-03-20 16:10:00,
2013-03-20 12:15:00,79.2,62.7,29.91,SSE,167,3.5,3.5,57,0.00,,OVC,0.00,WeatherDisplay:10.37,2013-03-20 16:15:00,
2013-03-20 12:20:00,79.4,63.3,29.91,SSE,163,3.0,3.0,58,0.00,,OVC,0.00,WeatherDisplay:10.37,2013-03-20 16:20:00,
2013-03-20 12:25:00,79.4,62.8,29.91,SSE,164,0.0,0.0,57,0.00,,OVC,0.00,WeatherDisplay:10.37,2013-03-20 16:25:00,
2013-03-20 12:30:00,79.8,64.2,29.91,SSW,203,2.3,0.0,59,0.00,,OVC,0.00,WeatherDisplay:10.37,2013-03-20 16:30:00,
2013-03-20 12:35:00,79.8,64.2,29.91,SW,229,4.6,0.0,59,0.00,,OVC,0.00,WeatherDisplay:10.37,2013-03-20 16:35:00,
2013-03-20 12:40:00,79.8,63.7,29.91,SSW,202,11.5,11.5,58,0.00,,OVC,0.00,WeatherDisplay:10.37,2013-03-20 16:40:00,
2013-03-20 12:45:00,79.8,63.7,29.90,WSW,240,11.0,11.0,58,0.00,,OVC,0.00,WeatherDisplay:10.37,2013-03-20 16:45:00,
2013-03-20 12:50:00,79.6,63.0,29.90,SW,216,6.9,0.0,57,0.00,,OVC,0.00,WeatherDisplay:10.37,2013-03-20 16:50:00,
2013-03-20 12:55:00,79.6,63.5,29.90,SSW,200,11.5,0.0,58,0.00,,OVC,0.00,WeatherDisplay:10.37,2013-03-20 16:55:00,
2013-03-20 13:00:00,79.8,63.7,29.89,SW,214,0.0,0.0,58,0.00,,OVC,0.00,WeatherDisplay:10.37,2013-03-20 17:00:00,
2013-03-20 13:05:00,79.9,63.3,29.89,WSW,250,1.2,0.0,57,0.00,,OVC,0.00,WeatherDisplay:10.37,2013-03-20 17:05:00,
2013-03-20 13:10:00,80.3,63.2,29.89,SSW,206,12.7,12.7,56,0.00,,OVC,0.00,WeatherDisplay:10.37,2013-03-20 17:10:00,
2013-03-20 13:15:00,80.7,63.5,29.89,WSW,250,16.1,16.1,56,0.00,,OVC,0.00,WeatherDisplay:10.37,2013-03-20 17:15:00,
2013-03-20 13:20:00,81.1,62.9,29.89,SSW,212,0.0,0.0,54,0.00,,OVC,0.00,WeatherDisplay:10.37,2013-03-20 17:20:00,
2013-03-20 13:25:00,81.6,63.3,29.89,SW,218,6.9,6.9,54,0.00,,OVC,0.00,WeatherDisplay:10.37,2013-03-20 17:25:00,
2013-03-20 13:30:00,82.4,62.5,29.87,WSW,238,12.7,12.7,51,0.00,,OVC,0.00,WeatherDisplay:10.37,2013-03-20 17:30:00,
2013-03-20 13:35:00,82.4,60.7,29.87,SW,215,6.9,6.9,48,0.00,,OVC,0.00,WeatherDisplay:10.37,2013-03-20 17:35:00,
2013-03-20 13:40:00,82.2,61.1,29.87,WSW,255,0.0,0.0,49,0.00,,OVC,0.00,WeatherDisplay:10.37,2013-03-20 17:40:00,
2013-03-20 13:45:00,82.6,61.5,29.85,SSW,211,8.1,8.1,49,0.00,,OVC,0.00,WeatherDisplay:10.37,2013-03-20 17:45:00,
2013-03-20 13:50:00,83.0,60.1,29.85,South,186,11.5,11.5,46,0.00,,OVC,0.00,WeatherDisplay:10.37,2013-03-20 17:50:00,
2013-03-20 13:55:00,82.4,61.3,29.85,SSW,196,0.0,0.0,49,0.00,,OVC,0.00,WeatherDisplay:10.37,2013-03-20 17:55:00,
2013-03-20 14:00:00,82.6,60.3,29.84,SSW,196,0.0,0.0,47,0.00,,OVC,0.00,WeatherDisplay:10.37,2013-03-20 18:00:00,
2013-03-20 14:05:00,83.2,60.3,29.84,WSW,248,10.4,10.4,46,0.00,,OVC,0.00,WeatherDisplay:10.37,2013-03-20 18:05:00,
2013-03-20 14:10:00,83.6,60.0,29.84,WSW,248,5.8,5.8,45,0.00,,OVC,0.00,WeatherDisplay:10.37,2013-03-20 18:10:00,
2013-03-20 14:15:00,83.8,60.2,29.84,WSW,247,0.0,0.0,45,0.00,,OVC,0.00,WeatherDisplay:10.37,2013-03-20 18:15:00,
2013-03-20 14:20:00,83.8,60.8,29.84,SW,215,13.8,13.8,46,0.00,,OVC,0.00,WeatherDisplay:10.37,2013-03-20 18:20:00,
2013-03-20 14:25:00,83.4,59.8,29.84,SSE,156,0.0,0.0,45,0.00,,OVC,0.00,WeatherDisplay:10.37,2013-03-20 18:25:00,
2013-03-20 14:30:00,84.0,60.4,29.83,SSE,157,0.0,0.0,45,0.00,,OVC,0.00,WeatherDisplay:10.37,2013-03-20 18:30:00,
2013-03-20 14:35:00,84.1,61.1,29.83,SW,236,16.1,16.1,46,0.00,,OVC,0.00,WeatherDisplay:10.37,2013-03-20 18:35:00,
2013-03-20 14:40:00,84.1,61.1,29.83,SSE,159,0.0,0.0,46,0.00,,OVC,0.00,WeatherDisplay:10.37,2013-03-20 18:40:00,
2013-03-20 14:45:00,84.0,61.0,29.83,SW,227,1.2,1.2,46,0.00,,OVC,0.00,WeatherDisplay:10.37,2013-03-20 18:45:00,
2013-03-20 14:50:00,83.4,61.1,29.83,SW,215,0.0,0.0,47,0.00,,OVC,0.00,WeatherDisplay:10.37,2013-03-20 18:50:00,
2013-03-20 14:55:00,83.6,61.2,29.83,WNW,287,0.0,0.3,47,0.00,,OVC,0.00,WeatherDisplay:10.37,2013-03-20 18:55:00,
2013-03-20 15:00:00,84.5,62.1,29.82,SW,225,12.0,12.0,47,0.00,,OVC,0.00,WeatherDisplay:10.37,2013-03-20 19:00:00,
2013-03-20 15:05:00,84.7,61.6,29.82,WSW,250,8.1,8.1,46,0.00,,OVC,0.00,WeatherDisplay:10.37,2013-03-20 19:05:00,
2013-03-20 15:10:00,84.5,61.4,29.82,WSW,257,0.0,0.0,46,0.00,,OVC,0.00,WeatherDisplay:10.37,2013-03-20 19:10:00,
2013-03-20 15:15:00,84.7,61.0,29.81,WSW,256,0.0,0.0,45,0.00,,OVC,0.00,WeatherDisplay:10.37,2013-03-20 19:15:00,
2013-03-20 15:20:00,85.3,61.6,29.81,WSW,257,18.4,18.4,45,0.00,,OVC,0.00,WeatherDisplay:10.37,2013-03-20 19:20:00,
2013-03-20 15:25:00,84.9,61.2,29.81,NW,313,16.1,16.1,45,0.00,,OVC,0.00,WeatherDisplay:10.37,2013-03-20 19:25:00,
2013-03-20 15:30:00,84.1,59.2,29.81,WSW,248,8.0,8.0,43,0.00,,OVC,0.00,WeatherDisplay:10.37,2013-03-20 19:30:00,
2013-03-20 15:35:00,83.8,59.6,29.81,WSW,242,0.0,0.0,44,0.00,,OVC,0.00,WeatherDisplay:10.37,2013-03-20 19:35:00,
2013-03-20 15:40:00,83.8,60.2,29.81,NNW,327,11.5,11.5,45,0.00,,OVC,0.00,WeatherDisplay:10.37,2013-03-20 19:40:00,
2013-03-20 15:45:00,83.6,60.0,29.80,NNW,334,0.0,0.0,45,0.00,,OVC,0.00,WeatherDisplay:10.37,2013-03-20 19:45:00,
2013-03-20 15:50:00,83.4,59.2,29.80,NW,323,12.0,12.0,44,0.00,,OVC,0.00,WeatherDisplay:10.37,2013-03-20 19:50:00,
2013-03-20 15:55:00,83.0,59.5,29.80,NNW,329,8.1,8.1,45,0.00,,OVC,0.00,WeatherDisplay:10.37,2013-03-20 19:55:00,
2013-03-20 16:00:00,82.8,59.9,29.80,WNW,300,6.0,6.0,46,0.00,,OVC,0.00,WeatherDisplay:10.37,2013-03-20 20:00:00,
2013-03-20 16:05:00,82.8,59.9,29.80,WNW,303,0.0,0.0,46,0.00,,OVC,0.00,WeatherDisplay:10.37,2013-03-20 20:05:00,
2013-03-20 16:10:00,83.0,60.7,29.80,SSE,152,1.0,1.0,47,0.00,,OVC,0.00,WeatherDisplay:10.37,2013-03-20 20:10:00,
2013-03-20 16:15:00,81.4,66.2,29.79,SE,144,8.1,8.1,60,0.00,,OVC,0.00,WeatherDisplay:10.37,2013-03-20 20:15:00,
2013-03-20 16:20:00,80.7,66.5,29.79,SE,129,0.0,0.0,62,0.00,,OVC,0.00,WeatherDisplay:10.37,2013-03-20 20:20:00,
2013-03-20 16:25:00,80.1,65.9,29.79,NE,37,8.1,8.1,62,0.00,,OVC,0.00,WeatherDisplay:10.37,2013-03-20 20:25:00,
2013-03-20 16:30:00,79.8,66.1,29.79,ENE,74,0.0,0.0,63,0.00,,OVC,0.00,WeatherDisplay:10.37,2013-03-20 20:30:00,
2013-03-20 16:35:00,79.8,66.1,29.79,SE,130,0.0,0.1,63,0.00,,OVC,0.00,WeatherDisplay:10.37,2013-03-20 20:35:00,
2013-03-20 16:40:00,79.6,65.9,29.79,SE,142,16.1,16.1,63,0.00,,OVC,0.00,WeatherDisplay:10.37,2013-03-20 20:40:00,
2013-03-20 16:45:00,79.4,66.2,29.79,SE,136,0.0,0.0,64,0.00,,OVC,0.00,WeatherDisplay:10.37,2013-03-20 20:45:00,
2013-03-20 16:50:00,79.4,65.7,29.79,SE,137,0.0,0.0,63,0.00,,OVC,0.00,WeatherDisplay:10.37,2013-03-20 20:50:00,
2013-03-20 16:55:00,79.6,66.3,29.79,SE,137,0.0,0.0,64,0.00,,OVC,0.00,WeatherDisplay:10.37,2013-03-20 20:55:00,
2013-03-20 17:00:00,79.6,65.9,29.79,SE,137,0.0,0.0,63,0.00,,OVC,0.00,WeatherDisplay:10.37,2013-03-20 21:00:00,
2013-03-20 17:05:00,79.4,65.7,29.79,SE,137,0.0,0.0,63,0.00,,OVC,0.00,WeatherDisplay:10.37,2013-03-20 21:05:00,
2013-03-20 17:10:00,79.4,65.7,29.79,SE,136,0.0,0.0,63,0.00,,OVC,0.00,WeatherDisplay:10.37,2013-03-20 21:10:00,
2013-03-20 17:15:00,79.2,66.0,29.79,SE,136,0.0,0.0,64,0.00,,OVC,0.00,WeatherDisplay:10.37,2013-03-20 21:15:00,
2013-03-20 17:20:00,79.0,63.4,29.79,NW,317,19.6,19.6,59,0.00,,OVC,0.00,WeatherDisplay:10.37,2013-03-20 21:20:00,
2013-03-20 17:26:00,79.4,61.3,29.79,WNW,292,11.5,11.5,54,0.00,,OVC,0.00,WeatherDisplay:10.37,2013-03-20 21:26:00,
2013-03-20 17:31:00,79.8,60.6,29.78,WNW,300,16.1,16.1,52,0.00,,OVC,0.00,WeatherDisplay:10.37,2013-03-20 21:31:00,
2013-03-20 17:36:00,79.9,60.7,29.78,NW,319,8.1,8.1,52,0.00,,OVC,0.00,WeatherDisplay:10.37,2013-03-20 21:36:00,
2013-03-20 17:41:00,79.9,59.6,29.78,West,277,9.2,9.2,50,0.00,,OVC,0.00,WeatherDisplay:10.37,2013-03-20 21:41:00,
2013-03-20 17:46:00,79.9,59.6,29.78,NW,321,9.2,9.2,50,0.00,,OVC,0.00,WeatherDisplay:10.37,2013-03-20 21:46:00,
2013-03-20 17:51:00,79.9,60.2,29.78,WNW,293,3.5,3.5,51,0.00,,OVC,0.00,WeatherDisplay:10.37,2013-03-20 21:51:00,
2013-03-20 17:56:00,79.9,60.2,29.78,NW,314,16.1,16.1,51,0.00,,OVC,0.00,WeatherDisplay:10.37,2013-03-20 21:56:00,
2013-03-20 18:01:00,79.9,60.2,29.78,NW,315,0.0,0.0,51,0.00,,OVC,0.00,WeatherDisplay:10.37,2013-03-20 22:01:00,
2013-03-20 18:06:00,79.9,60.2,29.78,NW,321,8.1,8.1,51,0.00,,OVC,0.00,WeatherDisplay:10.37,2013-03-20 22:06:00,
2013-03-20 18:11:00,79.8,60.1,29.78,NW,308,8.1,8.1,51,0.00,,OVC,0.00,WeatherDisplay:10.37,2013-03-20 22:11:00,
2013-03-20 18:17:00,79.8,60.6,29.79,NW,312,3.5,0.0,52,0.00,,OVC,0.00,WeatherDisplay:10.37,2013-03-20 22:17:00,
2013-03-20 18:22:00,79.6,60.4,29.79,NW,313,0.0,0.0,52,0.00,,OVC,0.00,WeatherDisplay:10.37,2013-03-20 22:22:00,
2013-03-20 18:27:00,79.4,60.8,29.79,NNW,330,0.0,0.0,53,0.00,,OVC,0.00,WeatherDisplay:10.37,2013-03-20 22:27:00,
2013-03-20 18:32:00,79.4,61.3,29.79,NW,317,8.1,8.1,54,0.00,,OVC,0.00,WeatherDisplay:10.37,2013-03-20 22:32:00,
2013-03-20 18:37:00,79.2,61.1,29.79,WNW,300,0.0,0.0,54,0.00,,OVC,0.00,WeatherDisplay:10.37,2013-03-20 22:37:00,
2013-03-20 18:42:00,79.0,60.9,29.79,WNW,294,3.5,3.5,54,0.00,,OVC,0.00,WeatherDisplay:10.37,2013-03-20 22:42:00,
2013-03-20 18:47:00,78.8,61.3,29.81,NW,304,5.8,5.8,55,0.00,,OVC,0.00,WeatherDisplay:10.37,2013-03-20 22:47:00,
2013-03-20 18:52:00,78.6,60.6,29.81,NW,315,4.6,4.6,54,0.00,,OVC,0.00,WeatherDisplay:10.37,2013-03-20 22:52:00,
2013-03-20 18:57:00,78.5,61.0,29.81,NW,307,4.6,4.6,55,0.00,,OVC,0.00,WeatherDisplay:10.37,2013-03-20 22:57:00,
2013-03-20 19:02:00,78.1,60.6,29.81,WNW,301,4.6,4.6,55,0.00,,OVC,0.00,WeatherDisplay:10.37,2013-03-20 23:02:00,
2013-03-20 19:07:00,77.9,59.4,29.81,West,266,20.7,20.7,53,0.00,,OVC,0.00,WeatherDisplay:10.37,2013-03-20 23:07:00,
2013-03-20 19:12:00,77.6,56.9,29.81,WNW,285,16.1,16.1,49,0.00,,OVC,0.00,WeatherDisplay:10.37,2013-03-20 23:12:00,
2013-03-20 19:17:00,77.4,56.2,29.81,WNW,284,8.1,8.1,48,0.00,,OVC,0.00,WeatherDisplay:10.37,2013-03-20 23:17:00,
2013-03-20 19:22:00,77.2,56.0,29.81,West,261,6.9,6.9,48,0.00,,OVC,0.00,WeatherDisplay:10.37,2013-03-20 23:22:00,
2013-03-20 19:27:00,77.0,55.2,29.81,WNW,287,11.5,11.5,47,0.00,,OVC,0.00,WeatherDisplay:10.37,2013-03-20 23:27:00,
2013-03-20 19:32:00,76.7,55.5,29.81,WNW,289,6.0,6.0,48,0.00,,OVC,0.00,WeatherDisplay:10.37,2013-03-20 23:32:00,
2013-03-20 19:37:00,76.5,55.3,29.81,WNW,290,13.0,13.0,48,0.00,,OVC,0.00,WeatherDisplay:10.37,2013-03-20 23:37:00,
2013-03-20 19:42:00,76.1,55.5,29.81,WNW,299,10.4,10.4,49,0.00,,OVC,0.00,WeatherDisplay:10.37,2013-03-20 23:42:00,
2013-03-20 19:47:00,76.0,56.0,29.83,West,280,11.5,11.5,50,0.00,,OVC,0.00,WeatherDisplay:10.37,2013-03-20 23:47:00,
2013-03-20 19:52:00,75.8,56.4,29.83,West,273,10.4,10.4,51,0.00,,OVC,0.00,WeatherDisplay:10.37,2013-03-20 23:52:00,
2013-03-20 19:57:00,75.6,56.7,29.83,WNW,293,10.4,10.4,52,0.00,,OVC,0.00,WeatherDisplay:10.37,2013-03-20 23:57:00,
2013-03-20 20:02:00,75.4,57.1,29.84,West,276,15.0,15.0,53,0.00,CLR,OVC,0.00,WeatherDisplay:10.37,2013-03-21 00:02:00,
2013-03-20 20:07:00,75.3,57.0,29.84,WNW,288,23.0,23.0,53,0.00,CLR,OVC,0.00,WeatherDisplay:10.37,2013-03-21 00:07:00,
2013-03-20 20:12:00,75.1,56.8,29.84,NW,312,19.6,19.6,53,0.00,CLR,OVC,0.00,WeatherDisplay:10.37,2013-03-21 00:12:00,
2013-03-20 20:17:00,74.9,57.1,29.84,WNW,298,3.5,3.5,54,0.00,CLR,OVC,0.00,WeatherDisplay:10.37,2013-03-21 00:17:00,
2013-03-20 20:22:00,74.7,57.5,29.84,West,261,9.2,9.2,55,0.00,CLR,OVC,0.00,WeatherDisplay:10.37,2013-03-21 00:22:00,
2013-03-20 20:27:00,74.6,57.9,29.84,West,271,9.2,9.2,56,0.00,CLR,OVC,0.00,WeatherDisplay:10.37,2013-03-21 00:27:00,
2013-03-20 20:32:00,74.4,58.2,29.87,WSW,248,19.6,19.6,57,0.00,CLR,OVC,0.00,WeatherDisplay:10.37,2013-03-21 00:32:00,
2013-03-20 20:37:00,74.2,58.0,29.87,WNW,287,19.6,19.6,57,0.00,CLR,OVC,0.00,WeatherDisplay:10.37,2013-03-21 00:37:00,
2013-03-20 20:42:00,73.9,58.2,29.87,West,271,26.5,26.5,58,0.00,CLR,OVC,0.00,WeatherDisplay:10.37,2013-03-21 00:42:00,
2013-03-20 20:47:00,73.7,58.5,29.87,WNW,302,17.0,17.0,59,0.00,CLR,OVC,0.00,WeatherDisplay:10.37,2013-03-21 00:47:00,
2013-03-20 20:52:00,73.5,58.3,29.87,WNW,290,27.6,27.6,59,0.00,CLR,OVC,0.00,WeatherDisplay:10.37,2013-03-21 00:52:00,
2013-03-20 20:57:00,73.3,58.1,29.87,WNW,298,19.6,19.6,59,0.00,CLR,OVC,0.00,WeatherDisplay:10.37,2013-03-21 00:57:00,
2013-03-20 21:02:00,73.2,58.5,29.87,WNW,303,14.0,14.0,60,0.00,,OVC,0.00,WeatherDisplay:10.37,2013-03-21 01:02:00,
2013-03-20 21:07:00,73.0,58.3,29.87,West,277,19.6,19.6,60,0.00,,OVC,0.00,WeatherDisplay:10.37,2013-03-21 01:07:00,
2013-03-20 21:12:00,73.0,58.3,29.87,NW,313,15.0,15.0,60,0.00,,OVC,0.00,WeatherDisplay:10.37,2013-03-21 01:12:00,
2013-03-20 21:17:00,72.8,57.6,29.89,WNW,293,38.0,38.0,59,0.00,,OVC,0.00,WeatherDisplay:10.37,2013-03-21 01:17:00,
2013-03-20 21:22:00,72.8,57.6,29.89,NW,311,21.9,21.9,59,0.00,,OVC,0.00,WeatherDisplay:10.37,2013-03-21 01:22:00,
2013-03-20 21:27:00,72.7,58.0,29.89,West,274,26.5,26.5,60,0.00,,OVC,0.00,WeatherDisplay:10.37,2013-03-21 01:27:00,
2013-03-20 21:33:00,72.5,58.7,29.90,NW,317,26.5,26.5,62,0.00,,OVC,0.00,WeatherDisplay:10.37,2013-03-21 01:33:00,
2013-03-20 21:38:00,72.0,58.3,29.90,NW,317,24.2,24.2,62,0.00,,OVC,0.00,WeatherDisplay:10.37,2013-03-21 01:38:00,
2013-03-20 21:43:00,71.5,58.7,29.90,NW,321,31.1,31.1,64,0.00,,OVC,0.00,WeatherDisplay:10.37,2013-03-21 01:43:00,
2013-03-20 21:48:00,71.1,58.7,29.91,West,259,44.9,44.9,65,0.00,,OVC,0.00,WeatherDisplay:10.37,2013-03-21 01:48:00,
2013-03-20 21:53:00,70.8,58.9,29.91,NW,314,25.3,25.3,66,0.00,,OVC,0.00,WeatherDisplay:10.37,2013-03-21 01:53:00,
2013-03-20 21:58:00,70.4,58.9,29.91,NW,309,27.6,27.6,67,0.00,,OVC,0.00,WeatherDisplay:10.37,2013-03-21 01:58:00,
2013-03-20 22:03:00,70.1,59.0,29.92,WNW,292,10.4,10.4,68,0.00,CLR,OVC,0.00,WeatherDisplay:10.37,2013-03-21 02:03:00,
2013-03-20 22:08:00,69.8,59.2,29.92,West,269,16.1,16.1,69,0.00,CLR,OVC,0.00,WeatherDisplay:10.37,2013-03-21 02:08:00,
2013-03-20 22:13:00,69.4,59.2,29.92,West,272,34.5,34.5,70,0.00,CLR,OVC,0.00,WeatherDisplay:10.37,2013-03-21 02:13:00,
2013-03-20 22:18:00,69.1,59.3,29.91,SW,229,15.0,15.0,71,0.00,CLR,OVC,0.00,WeatherDisplay:10.37,2013-03-21 02:18:00,
2013-03-20 22:23:00,69.1,59.3,29.91,West,263,19.6,19.6,71,0.00,CLR,OVC,0.00,WeatherDisplay:10.37,2013-03-21 02:23:00,
2013-03-20 22:28:00,68.9,59.5,29.91,WSW,251,15.0,15.0,72,0.00,CLR,OVC,0.00,WeatherDisplay:10.37,2013-03-21 02:28:00,
2013-03-20 22:33:00,68.8,59.4,29.89,WSW,251,13.8,13.8,72,0.00,CLR,OVC,0.00,WeatherDisplay:10.37,2013-03-21 02:33:00,
2013-03-20 22:38:00,68.6,59.6,29.89,West,276,0.0,0.0,73,0.00,CLR,OVC,0.00,WeatherDisplay:10.37,2013-03-21 02:38:00,
2013-03-20 22:43:00,68.4,59.8,29.89,West,266,7.0,7.0,74,0.00,CLR,OVC,0.00,WeatherDisplay:10.37,2013-03-21 02:43:00,
2013-03-20 22:48:00,68.3,60.1,29.86,West,265,12.7,12.7,75,0.00,CLR,OVC,0.00,WeatherDisplay:10.37,2013-03-21 02:48:00,
2013-03-20 22:53:00,68.1,59.9,29.86,SW,227,17.0,17.0,75,0.00,CLR,OVC,0.00,WeatherDisplay:10.37,2013-03-21 02:53:00,
2013-03-20 22:58:00,67.9,60.1,29.86,WSW,254,17.3,17.3,76,0.00,CLR,OVC,0.00,WeatherDisplay:10.37,2013-03-21 02:58:00,
2013-03-20 23:03:00,67.8,61.0,29.85,WSW,244,16.0,16.0,79,0.00,,OVC,0.00,WeatherDisplay:10.37,2013-03-21 03:03:00,
2013-03-20 23:08:00,67.6,60.1,29.85,WSW,238,16.0,16.0,77,0.00,,OVC,0.00,WeatherDisplay:10.37,2013-03-21 03:08:00,
2013-03-20 23:13:00,67.4,59.9,29.85,West,275,16.0,16.0,77,0.00,,OVC,0.00,WeatherDisplay:10.37,2013-03-21 03:13:00,
2013-03-20 23:18:00,67.4,60.3,29.84,WNW,300,13.8,13.8,78,0.00,,OVC,0.00,WeatherDisplay:10.37,2013-03-21 03:18:00,
2013-03-20 23:23:00,67.3,60.2,29.84,WNW,283,19.6,19.6,78,0.00,,OVC,0.00,WeatherDisplay:10.37,2013-03-21 03:23:00,
2013-03-20 23:28:00,67.1,60.0,29.84,WNW,294,16.1,16.1,78,0.00,,OVC,0.00,WeatherDisplay:10.37,2013-03-21 03:28:00,
2013-03-20 23:33:00,66.9,60.2,29.83,WNW,288,3.5,3.6,79,0.00,,OVC,0.00,WeatherDisplay:10.37,2013-03-21 03:33:00,
2013-03-20 23:38:00,66.8,60.1,29.83,WNW,283,18.4,18.4,79,0.00,,OVC,0.00,WeatherDisplay:10.37,2013-03-21 03:38:00,
2013-03-20 23:43:00,66.6,60.2,29.83,WNW,288,15.0,15.0,80,0.00,,OVC,0.00,WeatherDisplay:10.37,2013-03-21 03:43:00,
2013-03-20 23:48:00,66.4,60.0,29.82,West,259,7.0,7.0,80,0.00,,OVC,0.00,WeatherDisplay:10.37,2013-03-21 03:48:00,
2013-03-20 23:53:00,66.4,60.4,29.82,West,272,17.3,17.3,81,0.00,,OVC,0.00,WeatherDisplay:10.37,2013-03-21 03:53:00,
2013-03-20 23:58:00,66.3,60.3,29.82,West,263,15.0,15.0,81,0.00,,OVC,0.00,WeatherDisplay:10.37,2013-03-21 03:58:00,